sensor_id;sensor_type;location;lat;lon;timestamp;pressure;altitude;pressure_sealevel;temperature;humidity
52935;BME280;38802;50.198;19.796;2023-04-25T00:02:16;95033.64;;;9.07;88.00
52935;BME280;38802;50.198;19.796;2023-04-25T00:04:43;95032.09;;;9.02;87.96
52935;BME280;38802;50.198;19.796;2023-04-25T00:07:10;95030.52;;;8.99;88.19
52935;BME280;38802;50.198;19.796;2023-04-25T00:09:37;95034.38;;;8.98;88.70
52935;BME280;38802;50.198;19.796;2023-04-25T00:12:04;95039.05;;;8.91;88.32
52935;BME280;38802;50.198;19.796;2023-04-25T00:14:30;95037.20;;;8.89;88.56
52935;BME280;38802;50.198;19.796;2023-04-25T00:17:00;95037.16;;;8.87;89.10
52935;BME280;38802;50.198;19.796;2023-04-25T00:19:26;95033.54;;;8.84;89.42
52935;BME280;38802;50.198;19.796;2023-04-25T00:21:55;95032.75;;;8.77;89.49
52935;BME280;38802;50.198;19.796;2023-04-25T00:24:22;95031.96;;;8.73;89.30
52935;BME280;38802;50.198;19.796;2023-04-25T00:26:48;95030.96;;;8.69;89.12
52935;BME280;38802;50.198;19.796;2023-04-25T00:29:15;95031.26;;;8.69;89.61
52935;BME280;38802;50.198;19.796;2023-04-25T00:31:41;95030.66;;;8.64;89.51
52935;BME280;38802;50.198;19.796;2023-04-25T00:34:08;95031.23;;;8.64;89.74
52935;BME280;38802;50.198;19.796;2023-04-25T00:36:35;95028.20;;;8.63;90.06
52935;BME280;38802;50.198;19.796;2023-04-25T00:39:02;95025.55;;;8.60;89.91
52935;BME280;38802;50.198;19.796;2023-04-25T00:41:31;95025.16;;;8.58;89.81
52935;BME280;38802;50.198;19.796;2023-04-25T00:43:58;95024.86;;;8.60;90.72
52935;BME280;38802;50.198;19.796;2023-04-25T00:46:25;95027.16;;;8.57;90.22
52935;BME280;38802;50.198;19.796;2023-04-25T00:48:52;95023.40;;;8.57;90.26
52935;BME280;38802;50.198;19.796;2023-04-25T00:51:20;95026.71;;;8.55;90.44
52935;BME280;38802;50.198;19.796;2023-04-25T00:53:48;95030.74;;;8.52;90.12
52935;BME280;38802;50.198;19.796;2023-04-25T00:56:16;95028.45;;;8.53;90.04
52935;BME280;38802;50.198;19.796;2023-04-25T00:58:43;95031.77;;;8.54;90.43
52935;BME280;38802;50.198;19.796;2023-04-25T01:01:10;95030.05;;;8.54;90.46
52935;BME280;38802;50.198;19.796;2023-04-25T01:03:38;95029.05;;;8.52;90.64
52935;BME280;38802;50.198;19.796;2023-04-25T01:06:10;95033.09;;;8.51;91.02
52935;BME280;38802;50.198;19.796;2023-04-25T01:08:39;95033.42;;;8.51;91.45
52935;BME280;38802;50.198;19.796;2023-04-25T01:11:06;95029.95;;;8.46;91.32
52935;BME280;38802;50.198;19.796;2023-04-25T01:13:33;95032.77;;;8.43;91.32
52935;BME280;38802;50.198;19.796;2023-04-25T01:16:01;95032.37;;;8.40;91.06
52935;BME280;38802;50.198;19.796;2023-04-25T01:18:28;95034.13;;;8.40;91.05
52935;BME280;38802;50.198;19.796;2023-04-25T01:20:55;95033.63;;;8.42;91.68
52935;BME280;38802;50.198;19.796;2023-04-25T01:23:22;95029.70;;;8.39;91.77
52935;BME280;38802;50.198;19.796;2023-04-25T01:25:50;95028.84;;;8.34;91.78
52935;BME280;38802;50.198;19.796;2023-04-25T01:28:18;95029.14;;;8.32;91.84
52935;BME280;38802;50.198;19.796;2023-04-25T01:30:45;95031.32;;;8.29;91.60
52935;BME280;38802;50.198;19.796;2023-04-25T01:33:13;95030.75;;;8.28;91.64
52935;BME280;38802;50.198;19.796;2023-04-25T01:35:40;95027.77;;;8.28;91.63
52935;BME280;38802;50.198;19.796;2023-04-25T01:38:07;95032.82;;;8.28;92.26
52935;BME280;38802;50.198;19.796;2023-04-25T01:40:37;95033.27;;;8.19;91.66
52935;BME280;38802;50.198;19.796;2023-04-25T01:43:05;95030.94;;;8.19;92.14
52935;BME280;38802;50.198;19.796;2023-04-25T01:45:34;95031.24;;;8.16;92.22
52935;BME280;38802;50.198;19.796;2023-04-25T01:48:02;95032.17;;;8.16;92.09
52935;BME280;38802;50.198;19.796;2023-04-25T01:50:29;95032.27;;;8.15;92.36
52935;BME280;38802;50.198;19.796;2023-04-25T01:52:56;95033.88;;;8.14;92.18
52935;BME280;38802;50.198;19.796;2023-04-25T01:55:23;95032.68;;;8.12;92.64
52935;BME280;38802;50.198;19.796;2023-04-25T01:57:59;95035.34;;;8.10;92.21
52935;BME280;38802;50.198;19.796;2023-04-25T02:00:46;95038.16;;;8.07;92.19
52935;BME280;38802;50.198;19.796;2023-04-25T02:03:12;95044.27;;;8.08;91.99
52935;BME280;38802;50.198;19.796;2023-04-25T02:05:40;95042.33;;;8.11;92.65
52935;BME280;38802;50.198;19.796;2023-04-25T02:08:09;95041.27;;;8.07;92.80
52935;BME280;38802;50.198;19.796;2023-04-25T02:10:36;95040.02;;;8.06;92.63
52935;BME280;38802;50.198;19.796;2023-04-25T02:13:10;95039.52;;;8.06;92.54
52935;BME280;38802;50.198;19.796;2023-04-25T02:15:43;95040.70;;;8.06;92.85
52935;BME280;38802;50.198;19.796;2023-04-25T02:18:14;95037.70;;;8.03;92.46
52935;BME280;38802;50.198;19.796;2023-04-25T02:20:43;95043.14;;;8.04;92.74
52935;BME280;38802;50.198;19.796;2023-04-25T02:23:10;95044.05;;;8.02;92.71
52935;BME280;38802;50.198;19.796;2023-04-25T02:25:37;95043.64;;;8.00;92.43
52935;BME280;38802;50.198;19.796;2023-04-25T02:28:04;95043.83;;;8.02;92.59
52935;BME280;38802;50.198;19.796;2023-04-25T02:30:31;95042.38;;;8.03;92.70
52935;BME280;38802;50.198;19.796;2023-04-25T02:32:57;95041.64;;;8.03;92.72
52935;BME280;38802;50.198;19.796;2023-04-25T02:35:24;95040.61;;;8.01;92.37
52935;BME280;38802;50.198;19.796;2023-04-25T02:37:53;95040.14;;;8.03;92.44
52935;BME280;38802;50.198;19.796;2023-04-25T02:40:20;95037.62;;;8.06;92.76
52935;BME280;38802;50.198;19.796;2023-04-25T02:42:46;95036.29;;;8.03;92.69
52935;BME280;38802;50.198;19.796;2023-04-25T02:45:14;95040.40;;;8.05;92.59
52935;BME280;38802;50.198;19.796;2023-04-25T02:47:40;95041.19;;;8.06;92.79
52935;BME280;38802;50.198;19.796;2023-04-25T02:50:07;95041.58;;;8.06;92.54
52935;BME280;38802;50.198;19.796;2023-04-25T02:52:34;95038.55;;;8.07;92.51
52935;BME280;38802;50.198;19.796;2023-04-25T02:55:12;95036.71;;;8.08;92.85
52935;BME280;38802;50.198;19.796;2023-04-25T02:57:41;95038.30;;;8.09;93.00
52935;BME280;38802;50.198;19.796;2023-04-25T03:00:10;95037.13;;;8.07;93.07
52935;BME280;38802;50.198;19.796;2023-04-25T03:02:38;95036.59;;;8.09;93.50
52935;BME280;38802;50.198;19.796;2023-04-25T03:05:05;95034.70;;;8.04;93.20
52935;BME280;38802;50.198;19.796;2023-04-25T03:07:32;95034.15;;;8.04;93.52
52935;BME280;38802;50.198;19.796;2023-04-25T03:09:59;95032.55;;;8.03;93.66
52935;BME280;38802;50.198;19.796;2023-04-25T03:12:26;95034.52;;;8.00;93.74
52935;BME280;38802;50.198;19.796;2023-04-25T03:14:53;95031.60;;;7.98;94.18
52935;BME280;38802;50.198;19.796;2023-04-25T03:17:20;95036.00;;;7.95;93.91
52935;BME280;38802;50.198;19.796;2023-04-25T03:19:49;95037.46;;;7.90;93.87
52935;BME280;38802;50.198;19.796;2023-04-25T03:22:15;95037.52;;;7.85;93.82
52935;BME280;38802;50.198;19.796;2023-04-25T03:24:42;95042.02;;;7.84;93.89
52935;BME280;38802;50.198;19.796;2023-04-25T03:27:09;95038.04;;;7.80;93.81
52935;BME280;38802;50.198;19.796;2023-04-25T03:29:35;95044.74;;;7.78;94.17
52935;BME280;38802;50.198;19.796;2023-04-25T03:32:03;95046.08;;;7.75;94.11
52935;BME280;38802;50.198;19.796;2023-04-25T03:34:30;95051.79;;;7.71;93.81
52935;BME280;38802;50.198;19.796;2023-04-25T03:36:56;95050.58;;;7.71;94.27
52935;BME280;38802;50.198;19.796;2023-04-25T03:39:23;95051.57;;;7.70;94.13
52935;BME280;38802;50.198;19.796;2023-04-25T03:41:50;95045.62;;;7.67;94.08
52935;BME280;38802;50.198;19.796;2023-04-25T03:44:18;95052.06;;;7.68;94.34
52935;BME280;38802;50.198;19.796;2023-04-25T03:46:45;95047.67;;;7.67;94.41
52935;BME280;38802;50.198;19.796;2023-04-25T03:55:12;95058.34;;;7.68;94.71
52935;BME280;38802;50.198;19.796;2023-04-25T03:57:39;95061.30;;;7.66;95.14
52935;BME280;38802;50.198;19.796;2023-04-25T04:00:06;95059.49;;;7.61;94.54
52935;BME280;38802;50.198;19.796;2023-04-25T04:02:39;95063.17;;;7.64;94.69
52935;BME280;38802;50.198;19.796;2023-04-25T04:05:11;95065.68;;;7.63;94.64
52935;BME280;38802;50.198;19.796;2023-04-25T04:07:44;95070.55;;;7.63;94.61
52935;BME280;38802;50.198;19.796;2023-04-25T04:10:11;95076.08;;;7.61;95.04
52935;BME280;38802;50.198;19.796;2023-04-25T04:12:40;95080.29;;;7.54;94.73
52935;BME280;38802;50.198;19.796;2023-04-25T04:15:08;95078.23;;;7.48;94.65
52935;BME280;38802;50.198;19.796;2023-04-25T04:17:35;95083.94;;;7.44;94.75
52935;BME280;38802;50.198;19.796;2023-04-25T04:20:02;95088.79;;;7.38;94.55
52935;BME280;38802;50.198;19.796;2023-04-25T04:22:31;95091.95;;;7.38;94.69
52935;BME280;38802;50.198;19.796;2023-04-25T04:25:03;95098.02;;;7.38;95.10
52935;BME280;38802;50.198;19.796;2023-04-25T04:27:52;95098.49;;;7.30;94.83
52935;BME280;38802;50.198;19.796;2023-04-25T04:30:35;95097.27;;;7.28;94.90
52935;BME280;38802;50.198;19.796;2023-04-25T04:33:06;95102.55;;;7.29;94.80
52935;BME280;38802;50.198;19.796;2023-04-25T04:35:33;95103.23;;;7.31;95.04
52935;BME280;38802;50.198;19.796;2023-04-25T04:38:00;95100.81;;;7.31;95.34
52935;BME280;38802;50.198;19.796;2023-04-25T04:40:31;95107.30;;;7.30;95.40
52935;BME280;38802;50.198;19.796;2023-04-25T04:43:07;95106.23;;;7.28;95.55
52935;BME280;38802;50.198;19.796;2023-04-25T04:45:56;95102.91;;;7.29;95.59
52935;BME280;38802;50.198;19.796;2023-04-25T04:48:30;95106.17;;;7.23;95.62
52935;BME280;38802;50.198;19.796;2023-04-25T04:51:35;95111.97;;;7.18;95.65
52935;BME280;38802;50.198;19.796;2023-04-25T04:54:15;95115.11;;;7.10;95.58
52935;BME280;38802;50.198;19.796;2023-04-25T04:57:00;95115.25;;;7.06;95.50
52935;BME280;38802;50.198;19.796;2023-04-25T04:59:35;95118.39;;;7.02;95.53
52935;BME280;38802;50.198;19.796;2023-04-25T05:02:13;95116.64;;;6.98;95.37
52935;BME280;38802;50.198;19.796;2023-04-25T05:04:51;95120.38;;;6.97;95.44
52935;BME280;38802;50.198;19.796;2023-04-25T05:07:47;95124.46;;;6.93;95.14
52935;BME280;38802;50.198;19.796;2023-04-25T05:10:44;95126.02;;;6.91;95.14
52935;BME280;38802;50.198;19.796;2023-04-25T05:13:19;95124.82;;;6.89;94.95
52935;BME280;38802;50.198;19.796;2023-04-25T05:16:04;95124.05;;;6.88;95.07
52935;BME280;38802;50.198;19.796;2023-04-25T05:18:48;95125.70;;;6.85;95.08
52935;BME280;38802;50.198;19.796;2023-04-25T05:21:43;95128.02;;;6.80;95.01
52935;BME280;38802;50.198;19.796;2023-04-25T05:24:24;95128.39;;;6.76;95.05
52935;BME280;38802;50.198;19.796;2023-04-25T05:27:10;95130.92;;;6.74;95.04
52935;BME280;38802;50.198;19.796;2023-04-25T05:29:48;95131.77;;;6.72;94.99
52935;BME280;38802;50.198;19.796;2023-04-25T05:32:47;95136.56;;;6.67;94.80
52935;BME280;38802;50.198;19.796;2023-04-25T05:35:14;95135.68;;;6.65;95.17
52935;BME280;38802;50.198;19.796;2023-04-25T05:37:46;95140.44;;;6.64;95.20
52935;BME280;38802;50.198;19.796;2023-04-25T05:40:14;95140.44;;;6.62;95.21
52935;BME280;38802;50.198;19.796;2023-04-25T05:42:44;95138.27;;;6.60;95.29
52935;BME280;38802;50.198;19.796;2023-04-25T05:45:40;95147.89;;;6.55;95.14
52935;BME280;38802;50.198;19.796;2023-04-25T05:48:21;95153.23;;;6.51;95.12
52935;BME280;38802;50.198;19.796;2023-04-25T05:50:57;95156.23;;;6.50;95.12
52935;BME280;38802;50.198;19.796;2023-04-25T05:53:42;95161.26;;;6.52;95.09
52935;BME280;38802;50.198;19.796;2023-04-25T05:56:09;95153.09;;;6.53;95.23
52935;BME280;38802;50.198;19.796;2023-04-25T05:58:36;95160.99;;;6.51;95.03
52935;BME280;38802;50.198;19.796;2023-04-25T06:01:02;95165.40;;;6.50;95.07
52935;BME280;38802;50.198;19.796;2023-04-25T06:03:29;95166.71;;;6.51;95.28
52935;BME280;38802;50.198;19.796;2023-04-25T06:05:57;95166.15;;;6.49;94.85
52935;BME280;38802;50.198;19.796;2023-04-25T06:08:25;95169.98;;;6.53;95.05
52935;BME280;38802;50.198;19.796;2023-04-25T06:10:52;95169.31;;;6.55;94.98
52935;BME280;38802;50.198;19.796;2023-04-25T06:13:18;95170.11;;;6.51;95.13
52935;BME280;38802;50.198;19.796;2023-04-25T06:15:46;95169.30;;;6.53;95.03
52935;BME280;38802;50.198;19.796;2023-04-25T06:18:12;95173.85;;;6.52;94.85
52935;BME280;38802;50.198;19.796;2023-04-25T06:20:39;95174.91;;;6.54;94.90
52935;BME280;38802;50.198;19.796;2023-04-25T06:23:06;95180.45;;;6.55;94.85
52935;BME280;38802;50.198;19.796;2023-04-25T06:25:42;95179.75;;;6.60;94.85
52935;BME280;38802;50.198;19.796;2023-04-25T06:28:08;95180.31;;;6.64;94.85
52935;BME280;38802;50.198;19.796;2023-04-25T06:30:36;95177.89;;;6.66;94.79
52935;BME280;38802;50.198;19.796;2023-04-25T06:33:06;95180.29;;;6.66;94.72
52935;BME280;38802;50.198;19.796;2023-04-25T06:35:35;95176.86;;;6.66;94.60
52935;BME280;38802;50.198;19.796;2023-04-25T06:38:02;95177.80;;;6.63;94.34
52935;BME280;38802;50.198;19.796;2023-04-25T06:40:29;95174.62;;;6.70;94.47
52935;BME280;38802;50.198;19.796;2023-04-25T06:42:56;95178.16;;;6.75;94.63
52935;BME280;38802;50.198;19.796;2023-04-25T06:45:38;95179.60;;;6.80;94.74
52935;BME280;38802;50.198;19.796;2023-04-25T06:48:07;95176.64;;;6.84;94.44
52935;BME280;38802;50.198;19.796;2023-04-25T06:50:33;95179.36;;;6.81;94.34
52935;BME280;38802;50.198;19.796;2023-04-25T06:53:01;95179.78;;;6.78;94.34
52935;BME280;38802;50.198;19.796;2023-04-25T06:55:28;95184.14;;;6.78;94.26
52935;BME280;38802;50.198;19.796;2023-04-25T06:58:04;95181.55;;;6.79;94.38
52935;BME280;38802;50.198;19.796;2023-04-25T07:00:48;95180.88;;;6.79;94.42
52935;BME280;38802;50.198;19.796;2023-04-25T07:03:16;95179.70;;;6.79;94.43
52935;BME280;38802;50.198;19.796;2023-04-25T07:05:43;95180.90;;;6.79;94.31
52935;BME280;38802;50.198;19.796;2023-04-25T07:08:12;95181.62;;;6.81;93.92
52935;BME280;38802;50.198;19.796;2023-04-25T07:10:38;95179.91;;;6.78;93.81
52935;BME280;38802;50.198;19.796;2023-04-25T07:13:06;95179.45;;;6.82;93.72
52935;BME280;38802;50.198;19.796;2023-04-25T07:15:32;95184.28;;;6.84;93.59
52935;BME280;38802;50.198;19.796;2023-04-25T07:18:00;95179.63;;;6.88;93.40
52935;BME280;38802;50.198;19.796;2023-04-25T07:20:27;95178.86;;;6.87;93.35
52935;BME280;38802;50.198;19.796;2023-04-25T07:22:55;95181.41;;;6.89;93.45
52935;BME280;38802;50.198;19.796;2023-04-25T07:25:22;95184.50;;;6.94;93.37
52935;BME280;38802;50.198;19.796;2023-04-25T07:27:49;95181.65;;;6.95;93.44
52935;BME280;38802;50.198;19.796;2023-04-25T07:30:18;95184.71;;;6.96;93.20
52935;BME280;38802;50.198;19.796;2023-04-25T07:32:45;95185.30;;;6.99;93.43
52935;BME280;38802;50.198;19.796;2023-04-25T07:35:15;95179.50;;;7.02;93.37
52935;BME280;38802;50.198;19.796;2023-04-25T07:37:42;95179.90;;;7.07;93.53
52935;BME280;38802;50.198;19.796;2023-04-25T07:40:12;95180.80;;;7.15;93.43
52935;BME280;38802;50.198;19.796;2023-04-25T07:42:44;95180.16;;;7.20;93.30
52935;BME280;38802;50.198;19.796;2023-04-25T07:45:11;95180.76;;;7.21;93.05
52935;BME280;38802;50.198;19.796;2023-04-25T07:47:39;95182.98;;;7.26;93.23
52935;BME280;38802;50.198;19.796;2023-04-25T07:50:06;95185.86;;;7.31;93.16
52935;BME280;38802;50.198;19.796;2023-04-25T07:52:33;95187.91;;;7.29;93.05
52935;BME280;38802;50.198;19.796;2023-04-25T07:55:07;95189.23;;;7.25;92.80
52935;BME280;38802;50.198;19.796;2023-04-25T07:57:53;95186.09;;;7.17;92.63
52935;BME280;38802;50.198;19.796;2023-04-25T08:00:20;95186.91;;;7.16;92.75
52935;BME280;38802;50.198;19.796;2023-04-25T08:02:48;95185.29;;;7.19;92.91
52935;BME280;38802;50.198;19.796;2023-04-25T08:05:15;95186.65;;;7.21;92.55
52935;BME280;38802;50.198;19.796;2023-04-25T08:07:47;95190.14;;;7.19;92.55
52935;BME280;38802;50.198;19.796;2023-04-25T08:10:14;95183.60;;;7.20;92.26
52935;BME280;38802;50.198;19.796;2023-04-25T08:12:41;95188.30;;;7.22;92.38
52935;BME280;38802;50.198;19.796;2023-04-25T08:15:08;95188.56;;;7.21;92.06
52935;BME280;38802;50.198;19.796;2023-04-25T08:17:37;95190.08;;;7.19;92.26
52935;BME280;38802;50.198;19.796;2023-04-25T08:20:06;95192.76;;;7.18;91.98
52935;BME280;38802;50.198;19.796;2023-04-25T08:22:33;95189.31;;;7.16;92.11
52935;BME280;38802;50.198;19.796;2023-04-25T08:25:15;95188.30;;;7.16;91.53
52935;BME280;38802;50.198;19.796;2023-04-25T08:27:44;95193.10;;;7.07;91.42
52935;BME280;38802;50.198;19.796;2023-04-25T08:30:12;95194.67;;;7.02;91.50
52935;BME280;38802;50.198;19.796;2023-04-25T08:32:39;95193.77;;;7.07;91.83
52935;BME280;38802;50.198;19.796;2023-04-25T08:35:17;95194.73;;;7.15;91.72
52935;BME280;38802;50.198;19.796;2023-04-25T08:37:44;95194.98;;;7.22;91.79
52935;BME280;38802;50.198;19.796;2023-04-25T08:40:14;95195.15;;;7.29;91.88
52935;BME280;38802;50.198;19.796;2023-04-25T08:42:57;95194.05;;;7.38;92.03
52935;BME280;38802;50.198;19.796;2023-04-25T08:45:27;95195.30;;;7.39;91.61
52935;BME280;38802;50.198;19.796;2023-04-25T08:47:56;95195.88;;;7.43;91.38
52935;BME280;38802;50.198;19.796;2023-04-25T08:50:24;95198.69;;;7.40;91.00
52935;BME280;38802;50.198;19.796;2023-04-25T08:52:54;95199.37;;;7.40;90.92
52935;BME280;38802;50.198;19.796;2023-04-25T08:55:22;95199.02;;;7.36;90.67
52935;BME280;38802;50.198;19.796;2023-04-25T08:57:53;95204.67;;;7.35;90.87
52935;BME280;38802;50.198;19.796;2023-04-25T09:00:21;95208.16;;;7.34;91.02
52935;BME280;38802;50.198;19.796;2023-04-25T09:02:49;95211.66;;;7.36;90.93
52935;BME280;38802;50.198;19.796;2023-04-25T09:05:18;95217.03;;;7.38;90.73
52935;BME280;38802;50.198;19.796;2023-04-25T09:07:49;95211.45;;;7.39;90.63
52935;BME280;38802;50.198;19.796;2023-04-25T09:10:17;95212.59;;;7.33;90.40
52935;BME280;38802;50.198;19.796;2023-04-25T09:12:44;95214.84;;;7.33;90.28
52935;BME280;38802;50.198;19.796;2023-04-25T09:15:12;95211.64;;;7.36;90.23
52935;BME280;38802;50.198;19.796;2023-04-25T09:18:10;95210.02;;;7.41;90.06
52935;BME280;38802;50.198;19.796;2023-04-25T09:20:42;95216.13;;;7.42;89.89
52935;BME280;38802;50.198;19.796;2023-04-25T09:23:27;95213.06;;;7.48;89.32
52935;BME280;38802;50.198;19.796;2023-04-25T09:25:54;95214.90;;;7.42;89.00
52935;BME280;38802;50.198;19.796;2023-04-25T09:28:25;95214.11;;;7.44;88.46
52935;BME280;38802;50.198;19.796;2023-04-25T09:30:58;95214.91;;;7.44;88.72
52935;BME280;38802;50.198;19.796;2023-04-25T09:33:42;95215.74;;;7.50;88.53
52935;BME280;38802;50.198;19.796;2023-04-25T09:36:09;95213.84;;;7.57;88.01
52935;BME280;38802;50.198;19.796;2023-04-25T09:38:55;95211.11;;;7.64;88.26
52935;BME280;38802;50.198;19.796;2023-04-25T09:41:28;95215.21;;;7.73;88.34
52935;BME280;38802;50.198;19.796;2023-04-25T09:43:58;95216.80;;;7.76;87.51
52935;BME280;38802;50.198;19.796;2023-04-25T09:46:34;95217.85;;;7.72;87.25
52935;BME280;38802;50.198;19.796;2023-04-25T09:49:07;95219.93;;;7.72;87.61
52935;BME280;38802;50.198;19.796;2023-04-25T09:51:54;95218.41;;;7.77;87.88
52935;BME280;38802;50.198;19.796;2023-04-25T09:54:23;95215.70;;;7.87;87.65
52935;BME280;38802;50.198;19.796;2023-04-25T09:56:57;95218.77;;;7.94;87.68
52935;BME280;38802;50.198;19.796;2023-04-25T09:59:28;95211.00;;;7.99;87.55
52935;BME280;38802;50.198;19.796;2023-04-25T10:01:58;95213.33;;;8.06;87.37
52935;BME280;38802;50.198;19.796;2023-04-25T10:04:34;95214.09;;;8.09;87.58
52935;BME280;38802;50.198;19.796;2023-04-25T10:07:09;95217.02;;;8.13;87.42
52935;BME280;38802;50.198;19.796;2023-04-25T10:09:38;95212.30;;;8.21;87.18
52935;BME280;38802;50.198;19.796;2023-04-25T10:12:08;95210.59;;;8.23;86.88
52935;BME280;38802;50.198;19.796;2023-04-25T10:14:35;95206.29;;;8.27;87.07
52935;BME280;38802;50.198;19.796;2023-04-25T10:17:02;95206.34;;;8.32;86.98
52935;BME280;38802;50.198;19.796;2023-04-25T10:19:29;95209.38;;;8.31;86.34
52935;BME280;38802;50.198;19.796;2023-04-25T10:24:52;95210.14;;;8.32;86.94
52935;BME280;38802;50.198;19.796;2023-04-25T10:27:19;95207.59;;;8.36;86.54
52935;BME280;38802;50.198;19.796;2023-04-25T10:30:00;95207.20;;;8.38;86.54
52935;BME280;38802;50.198;19.796;2023-04-25T10:32:30;95208.63;;;8.36;86.35
52935;BME280;38802;50.198;19.796;2023-04-25T10:34:57;95203.91;;;8.32;85.88
52935;BME280;38802;50.198;19.796;2023-04-25T10:37:24;95206.15;;;8.27;86.10
52935;BME280;38802;50.198;19.796;2023-04-25T10:39:51;95201.58;;;8.25;85.79
52935;BME280;38802;50.198;19.796;2023-04-25T10:42:19;95201.07;;;8.25;85.75
52935;BME280;38802;50.198;19.796;2023-04-25T10:45:09;95200.31;;;8.26;84.77
52935;BME280;38802;50.198;19.796;2023-04-25T10:47:44;95196.54;;;8.28;84.70
52935;BME280;38802;50.198;19.796;2023-04-25T10:50:14;95193.10;;;8.33;84.61
52935;BME280;38802;50.198;19.796;2023-04-25T10:52:42;95193.23;;;8.43;84.63
52935;BME280;38802;50.198;19.796;2023-04-25T10:55:10;95191.25;;;8.59;84.86
52935;BME280;38802;50.198;19.796;2023-04-25T10:57:42;95188.77;;;8.75;84.48
52935;BME280;38802;50.198;19.796;2023-04-25T11:00:17;95190.52;;;8.84;83.98
52935;BME280;38802;50.198;19.796;2023-04-25T11:02:51;95187.98;;;8.88;83.37
52935;BME280;38802;50.198;19.796;2023-04-25T11:05:22;95190.03;;;8.86;83.56
52935;BME280;38802;50.198;19.796;2023-04-25T11:07:51;95189.24;;;8.93;82.22
52935;BME280;38802;50.198;19.796;2023-04-25T11:10:33;95190.48;;;8.93;82.16
52935;BME280;38802;50.198;19.796;2023-04-25T11:13:04;95190.79;;;8.98;81.97
52935;BME280;38802;50.198;19.796;2023-04-25T11:15:32;95190.98;;;9.09;82.44
52935;BME280;38802;50.198;19.796;2023-04-25T11:17:59;95183.95;;;9.23;82.47
52935;BME280;38802;50.198;19.796;2023-04-25T11:20:26;95183.05;;;9.35;81.87
52935;BME280;38802;50.198;19.796;2023-04-25T11:22:57;95182.97;;;9.39;82.01
52935;BME280;38802;50.198;19.796;2023-04-25T11:25:25;95184.29;;;9.41;80.44
52935;BME280;38802;50.198;19.796;2023-04-25T11:27:54;95181.69;;;9.38;80.54
52935;BME280;38802;50.198;19.796;2023-04-25T11:30:22;95186.13;;;9.37;80.71
52935;BME280;38802;50.198;19.796;2023-04-25T11:32:49;95188.55;;;9.39;80.41
52935;BME280;38802;50.198;19.796;2023-04-25T11:35:16;95187.34;;;9.41;80.40
52935;BME280;38802;50.198;19.796;2023-04-25T11:37:43;95192.92;;;9.44;79.66
52935;BME280;38802;50.198;19.796;2023-04-25T11:40:11;95195.30;;;9.44;78.11
52935;BME280;38802;50.198;19.796;2023-04-25T11:42:39;95196.80;;;9.38;78.31
52935;BME280;38802;50.198;19.796;2023-04-25T11:45:09;95197.10;;;9.38;78.59
52935;BME280;38802;50.198;19.796;2023-04-25T11:47:37;95195.75;;;9.43;78.38
52935;BME280;38802;50.198;19.796;2023-04-25T11:50:06;95190.39;;;9.47;78.53
52935;BME280;38802;50.198;19.796;2023-04-25T11:52:41;95190.44;;;9.48;77.90
52935;BME280;38802;50.198;19.796;2023-04-25T11:57:38;95192.56;;;9.42;77.53
52935;BME280;38802;50.198;19.796;2023-04-25T12:02:45;95193.45;;;9.35;76.89
52935;BME280;38802;50.198;19.796;2023-04-25T12:05:14;95194.17;;;9.36;77.13
52935;BME280;38802;50.198;19.796;2023-04-25T12:08:09;95193.48;;;9.35;76.43
52935;BME280;38802;50.198;19.796;2023-04-25T12:10:38;95191.92;;;9.27;76.49
52935;BME280;38802;50.198;19.796;2023-04-25T12:13:25;95190.00;;;9.24;76.50
52935;BME280;38802;50.198;19.796;2023-04-25T12:15:54;95188.82;;;9.18;76.42
52935;BME280;38802;50.198;19.796;2023-04-25T12:18:25;95191.58;;;9.14;76.82
52935;BME280;38802;50.198;19.796;2023-04-25T12:20:54;95191.21;;;9.14;76.15
52935;BME280;38802;50.198;19.796;2023-04-25T12:23:28;95193.86;;;9.08;76.35
52935;BME280;38802;50.198;19.796;2023-04-25T12:25:55;95195.79;;;9.04;76.19
52935;BME280;38802;50.198;19.796;2023-04-25T12:28:24;95191.27;;;9.00;76.38
52935;BME280;38802;50.198;19.796;2023-04-25T12:30:55;95189.94;;;8.98;75.83
52935;BME280;38802;50.198;19.796;2023-04-25T12:33:22;95191.27;;;8.95;76.17
52935;BME280;38802;50.198;19.796;2023-04-25T12:35:49;95192.27;;;8.95;76.26
52935;BME280;38802;50.198;19.796;2023-04-25T12:38:30;95193.58;;;8.94;76.00
52935;BME280;38802;50.198;19.796;2023-04-25T12:40:58;95196.45;;;8.88;76.13
52935;BME280;38802;50.198;19.796;2023-04-25T12:43:25;95191.34;;;8.77;75.87
52935;BME280;38802;50.198;19.796;2023-04-25T12:45:53;95190.42;;;8.68;76.01
52935;BME280;38802;50.198;19.796;2023-04-25T12:48:20;95191.51;;;8.62;76.20
52935;BME280;38802;50.198;19.796;2023-04-25T12:50:48;95190.59;;;8.59;75.82
52935;BME280;38802;50.198;19.796;2023-04-25T12:53:16;95186.44;;;8.55;75.75
52935;BME280;38802;50.198;19.796;2023-04-25T12:55:43;95184.45;;;8.54;75.90
52935;BME280;38802;50.198;19.796;2023-04-25T12:58:16;95187.96;;;8.59;75.56
52935;BME280;38802;50.198;19.796;2023-04-25T13:00:44;95187.33;;;8.62;75.91
52935;BME280;38802;50.198;19.796;2023-04-25T13:03:11;95187.59;;;8.67;75.57
52935;BME280;38802;50.198;19.796;2023-04-25T13:05:38;95189.80;;;8.72;75.15
52935;BME280;38802;50.198;19.796;2023-04-25T13:08:05;95186.75;;;8.74;75.00
52935;BME280;38802;50.198;19.796;2023-04-25T13:10:32;95187.41;;;8.77;74.75
52935;BME280;38802;50.198;19.796;2023-04-25T13:13:00;95188.62;;;8.80;74.30
52935;BME280;38802;50.198;19.796;2023-04-25T13:15:28;95190.75;;;8.82;74.29
52935;BME280;38802;50.198;19.796;2023-04-25T13:17:55;95193.25;;;8.77;73.26
52935;BME280;38802;50.198;19.796;2023-04-25T13:20:22;95190.15;;;8.75;73.33
52935;BME280;38802;50.198;19.796;2023-04-25T13:22:49;95188.24;;;8.70;72.94
52935;BME280;38802;50.198;19.796;2023-04-25T13:25:16;95186.98;;;8.68;72.97
52935;BME280;38802;50.198;19.796;2023-04-25T13:27:42;95186.64;;;8.66;72.78
52935;BME280;38802;50.198;19.796;2023-04-25T13:30:10;95188.47;;;8.69;73.02
52935;BME280;38802;50.198;19.796;2023-04-25T13:32:38;95189.27;;;8.73;73.20